Time;durP1;ratioP1;P1;durP2;ratioP2;P2;SDS_P1;SDS_P2;PMS_P1;PMS_P2;Temp;Humidity;BMP_temperature;BMP_pressure;BME280_temperature;BME280_humidity;BME280_pressure;Samples;Min_cycle;Max_cycle;Signal;HPM_P1;HPM_P2
2023/04/25 00:02:01;;;;;;;;;;;;;;;6.35;91.31;100527.78;5046444;28;19940;-76
2023/04/25 00:04:29;;;;;;;;;;;;;;;6.36;91.18;100517.97;5027152;28;19936;-79
2023/04/25 00:06:55;;;;;;;;;;;;;;;6.40;91.10;100525.22;5018737;28;20405;-77
2023/04/25 00:09:21;;;;;;;;;;;;;;;6.40;91.24;100529.72;5010814;28;19931;-76
2023/04/25 00:11:46;;;;;;;;;;;;;;;6.45;90.69;100524.47;5030560;28;19963;-76
2023/04/25 00:14:12;;;;;;;;;;;;;;;6.44;90.75;100525.53;5024601;28;19938;-76
2023/04/25 00:16:38;;;;;;;;;;;;;;;6.40;91.46;100530.53;5028294;28;19990;-77
2023/04/25 00:19:04;;;;;;;;;;;;;;;6.41;91.87;100541.97;5029311;28;19966;-76
2023/04/25 00:21:31;;;;;;;;;;;;;;;6.35;91.91;100538.44;5035513;28;20039;-76
2023/04/25 00:23:57;;;;;;;;;;;;;;;6.39;92.15;100555.53;5014192;28;19945;-76
2023/04/25 00:26:22;;;;;;;;;;;;;;;6.46;92.56;100550.03;5022858;28;19933;-77
2023/04/25 00:28:48;;;;;;;;;;;;;;;6.39;93.08;100549.41;5028319;28;19943;-78
2023/04/25 00:31:13;;;;;;;;;;;;;;;6.32;92.41;100538.13;5010011;28;19952;-76
2023/04/25 00:33:39;;;;;;;;;;;;;;;6.26;92.39;100547.91;5040610;28;20401;-77
2023/04/25 00:36:05;;;;;;;;;;;;;;;6.20;92.34;100559.50;5027086;28;19932;-76
2023/04/25 00:38:31;;;;;;;;;;;;;;;6.29;91.81;100556.19;5042708;28;19942;-76
2023/04/25 00:40:57;;;;;;;;;;;;;;;6.16;92.26;100561.03;5045576;28;19934;-77
2023/04/25 00:43:25;;;;;;;;;;;;;;;6.19;92.25;100566.69;5043639;28;19957;-77
2023/04/25 00:45:52;;;;;;;;;;;;;;;6.12;92.66;100555.41;5014655;28;19942;-77
2023/04/25 00:48:17;;;;;;;;;;;;;;;6.25;92.52;100565.72;5016200;28;20407;-76
2023/04/25 00:50:50;;;;;;;;;;;;;;;6.13;92.26;100567.66;5013491;28;20051;-77
2023/04/25 00:53:15;;;;;;;;;;;;;;;6.08;91.40;100564.91;5030027;28;20019;-76
2023/04/25 00:55:41;;;;;;;;;;;;;;;6.04;90.96;100563.81;5025105;28;20399;-76
2023/04/25 00:58:06;;;;;;;;;;;;;;;6.02;91.82;100565.88;5028845;28;19930;-76
2023/04/25 01:00:32;;;;;;;;;;;;;;;6.03;90.59;100567.53;5020103;28;19935;-77
2023/04/25 01:02:58;;;;;;;;;;;;;;;6.04;91.58;100573.66;5010299;28;19952;-76
2023/04/25 01:05:23;;;;;;;;;;;;;;;6.02;91.42;100566.69;5024978;28;19937;-79
2023/04/25 01:07:49;;;;;;;;;;;;;;;6.00;90.73;100568.00;5024634;28;19940;-76
2023/04/25 01:10:15;;;;;;;;;;;;;;;5.94;90.96;100574.28;5009364;28;20498;-77
2023/04/25 01:12:40;;;;;;;;;;;;;;;5.92;91.60;100571.06;5022746;28;20012;-78
2023/04/25 01:15:06;;;;;;;;;;;;;;;5.87;90.28;100576.28;5028773;28;20455;-77
2023/04/25 01:17:33;;;;;;;;;;;;;;;5.89;90.56;100571.50;5025436;28;19931;-75
2023/04/25 01:19:59;;;;;;;;;;;;;;;5.85;90.69;100562.44;5014479;28;19987;-76
2023/04/25 01:22:25;;;;;;;;;;;;;;;5.79;90.19;100574.81;5016054;28;19953;-77
2023/04/25 01:24:51;;;;;;;;;;;;;;;5.78;90.28;100569.75;4998508;28;19945;-76
2023/04/25 01:27:16;;;;;;;;;;;;;;;5.71;90.32;100576.03;5031930;28;19938;-76
2023/04/25 01:29:42;;;;;;;;;;;;;;;5.66;91.39;100578.59;5028862;28;19944;-77
2023/04/25 01:32:08;;;;;;;;;;;;;;;5.72;89.30;100584.81;5009687;28;19952;-75
2023/04/25 01:34:34;;;;;;;;;;;;;;;5.71;89.77;100580.53;5029692;28;19984;-78
2023/04/25 01:37:01;;;;;;;;;;;;;;;5.80;88.41;100588.91;5012706;28;19945;-76
2023/04/25 01:39:28;;;;;;;;;;;;;;;5.73;90.00;100584.56;5035171;28;19933;-76
2023/04/25 01:41:54;;;;;;;;;;;;;;;5.68;90.55;100592.44;4997516;28;20024;-76
2023/04/25 01:44:19;;;;;;;;;;;;;;;5.62;90.29;100593.44;5029170;28;19942;-76
2023/04/25 01:46:45;;;;;;;;;;;;;;;5.64;88.72;100594.00;5030156;28;20512;-76
2023/04/25 01:49:11;;;;;;;;;;;;;;;5.64;89.42;100596.66;5024202;28;19941;-77
2023/04/25 01:51:37;;;;;;;;;;;;;;;5.50;88.05;100600.66;5015299;28;20048;-76
2023/04/25 01:54:02;;;;;;;;;;;;;;;5.42;89.06;100590.41;5024814;28;20044;-77
2023/04/25 01:56:32;;;;;;;;;;;;;;;5.50;88.88;100595.34;5005515;28;20053;-76
2023/04/25 01:58:58;;;;;;;;;;;;;;;5.39;88.36;100604.97;5009561;28;19930;-77
2023/04/25 02:01:49;;;;;;;;;;;;;;;5.29;89.13;100609.31;5025998;28;19951;-77
2023/04/25 02:04:21;;;;;;;;;;;;;;;5.28;88.84;100605.00;5024071;28;19934;-76
2023/04/25 02:06:47;;;;;;;;;;;;;;;5.24;88.13;100601.25;5028348;28;19967;-75
2023/04/25 02:09:12;;;;;;;;;;;;;;;5.23;88.79;100610.25;5029121;28;19935;-74
2023/04/25 02:11:44;;;;;;;;;;;;;;;5.25;87.73;100616.13;5030438;28;19967;-77
2023/04/25 02:14:32;;;;;;;;;;;;;;;5.19;88.44;100618.66;5045919;28;19971;-75
2023/04/25 02:17:18;;;;;;;;;;;;;;;5.25;87.80;100618.78;5018209;28;20378;-75
2023/04/25 02:19:44;;;;;;;;;;;;;;;5.24;87.94;100619.81;5030964;28;19945;-77
2023/04/25 02:22:10;;;;;;;;;;;;;;;5.22;87.81;100621.91;5030016;28;19953;-76
2023/04/25 02:24:36;;;;;;;;;;;;;;;5.26;88.14;100628.34;5027847;28;19935;-76
2023/04/25 02:27:01;;;;;;;;;;;;;;;5.14;89.73;100623.88;5029459;28;20453;-76
2023/04/25 02:29:27;;;;;;;;;;;;;;;5.04;90.32;100634.31;5036023;28;19936;-75
2023/04/25 02:31:53;;;;;;;;;;;;;;;5.06;88.72;100631.41;5010871;28;20476;-75
2023/04/25 02:34:18;;;;;;;;;;;;;;;4.98;87.88;100619.31;5031010;28;19939;-77
2023/04/25 02:36:44;;;;;;;;;;;;;;;4.88;89.07;100629.75;5032244;28;20011;-75
2023/04/25 02:39:10;;;;;;;;;;;;;;;4.75;88.90;100628.16;5032355;28;20490;-76
2023/04/25 02:41:36;;;;;;;;;;;;;;;4.73;90.41;100622.25;5046959;28;20314;-75
2023/04/25 02:44:01;;;;;;;;;;;;;;;4.90;88.10;100619.69;5033427;28;19951;-75
2023/04/25 02:46:26;;;;;;;;;;;;;;;4.80;89.33;100624.78;5033655;28;19935;-74
2023/04/25 02:48:52;;;;;;;;;;;;;;;4.78;88.99;100617.06;5027300;28;20022;-75
2023/04/25 02:51:17;;;;;;;;;;;;;;;4.83;88.86;100632.28;5017948;28;20011;-75
2023/04/25 02:53:43;;;;;;;;;;;;;;;4.86;88.82;100626.50;5014066;28;19963;-74
2023/04/25 02:56:09;;;;;;;;;;;;;;;4.71;88.68;100628.84;5012942;28;19937;-75
2023/04/25 02:58:34;;;;;;;;;;;;;;;4.74;89.64;100628.38;5024614;28;19980;-74
2023/04/25 03:01:00;;;;;;;;;;;;;;;4.74;89.96;100631.03;5023175;28;19936;-76
2023/04/25 03:03:25;;;;;;;;;;;;;;;4.74;89.67;100631.03;5029679;28;19945;-75
2023/04/25 03:05:51;;;;;;;;;;;;;;;4.57;88.54;100623.78;5017611;28;19936;-77
2023/04/25 03:08:22;;;;;;;;;;;;;;;4.71;85.18;100634.16;5014068;28;19932;-75
2023/04/25 03:10:49;;;;;;;;;;;;;;;4.70;83.70;100633.34;5016704;28;19965;-76
2023/04/25 03:13:15;;;;;;;;;;;;;;;4.67;83.29;100623.19;5008424;28;19961;-75
2023/04/25 03:15:42;;;;;;;;;;;;;;;4.59;85.10;100644.78;5018307;28;20411;-76
2023/04/25 03:18:07;;;;;;;;;;;;;;;4.47;85.88;100644.81;5011275;28;19934;-75
2023/04/25 03:20:33;;;;;;;;;;;;;;;4.44;87.28;100645.25;5016362;28;19953;-77
2023/04/25 03:22:58;;;;;;;;;;;;;;;4.51;86.28;100655.75;5033878;28;19955;-76
2023/04/25 03:25:25;;;;;;;;;;;;;;;4.37;82.95;100649.84;5021410;28;19932;-76
2023/04/25 03:27:50;;;;;;;;;;;;;;;4.19;86.00;100652.59;5012620;28;19986;-76
2023/04/25 03:30:16;;;;;;;;;;;;;;;4.18;84.82;100645.69;5034426;28;19987;-75
2023/04/25 03:32:43;;;;;;;;;;;;;;;3.93;86.31;100659.13;5029948;28;20005;-76
2023/04/25 03:35:09;;;;;;;;;;;;;;;3.75;85.37;100663.50;5023622;28;19941;-75
2023/04/25 03:37:34;;;;;;;;;;;;;;;3.66;85.83;100659.56;5032596;28;20297;-77
2023/04/25 03:40:00;;;;;;;;;;;;;;;3.43;87.00;100668.19;5034334;28;20878;-76
2023/04/25 03:42:38;;;;;;;;;;;;;;;3.38;88.04;100673.34;5024438;28;19992;-77
2023/04/25 03:45:04;;;;;;;;;;;;;;;3.48;86.71;100672.84;5032224;28;19970;-75
2023/04/25 03:47:30;;;;;;;;;;;;;;;3.47;88.42;100677.31;5037382;28;20415;-76
2023/04/25 03:49:55;;;;;;;;;;;;;;;3.63;87.58;100675.88;5015810;28;19936;-75
2023/04/25 03:52:22;;;;;;;;;;;;;;;3.71;86.72;100674.75;5021359;28;19946;-76
2023/04/25 03:54:47;;;;;;;;;;;;;;;3.74;86.48;100666.38;5025568;28;19980;-76
2023/04/25 03:57:17;;;;;;;;;;;;;;;3.72;86.39;100669.22;5013384;28;19978;-75
2023/04/25 03:59:42;;;;;;;;;;;;;;;3.88;83.22;100672.28;5037228;28;19941;-76
2023/04/25 04:02:10;;;;;;;;;;;;;;;3.95;81.05;100680.94;5018573;28;20083;-76
2023/04/25 04:04:37;;;;;;;;;;;;;;;3.84;84.33;100688.59;5019008;28;20022;-75
2023/04/25 04:07:02;;;;;;;;;;;;;;;3.94;83.86;100687.28;5026482;28;19937;-76
2023/04/25 04:09:32;;;;;;;;;;;;;;;3.80;83.28;100691.97;5017188;28;19936;-75
2023/04/25 04:12:02;;;;;;;;;;;;;;;3.59;84.28;100690.63;5015835;28;19955;-75
2023/04/25 04:14:29;;;;;;;;;;;;;;;3.70;85.03;100702.28;5049046;28;19930;-77
2023/04/25 04:16:55;;;;;;;;;;;;;;;3.60;84.39;100702.03;5045654;28;20365;-76
2023/04/25 04:19:21;;;;;;;;;;;;;;;3.77;84.55;100701.13;5030901;28;19945;-75
2023/04/25 04:21:54;;;;;;;;;;;;;;;3.70;84.77;100707.56;5028955;28;19959;-75
2023/04/25 04:24:20;;;;;;;;;;;;;;;3.43;85.12;100713.22;5031643;28;19949;-75
2023/04/25 04:26:51;;;;;;;;;;;;;;;3.27;85.40;100708.53;5035543;28;19932;-76
2023/04/25 04:29:38;;;;;;;;;;;;;;;3.41;84.80;100717.94;5032774;28;20387;-75
2023/04/25 04:32:09;;;;;;;;;;;;;;;3.32;82.67;100719.28;5029252;28;19997;-75
2023/04/25 04:34:35;;;;;;;;;;;;;;;3.32;84.82;100721.09;5027314;28;19962;-76
2023/04/25 04:37:02;;;;;;;;;;;;;;;3.14;84.68;100732.50;5022880;28;19933;-76
2023/04/25 04:39:28;;;;;;;;;;;;;;;3.16;85.81;100728.59;5010787;28;19939;-75
2023/04/25 04:42:03;;;;;;;;;;;;;;;2.98;87.27;100725.94;5032001;28;20442;-76
2023/04/25 04:44:55;;;;;;;;;;;;;;;3.01;86.96;100733.44;5021300;28;19947;-74
2023/04/25 04:47:42;;;;;;;;;;;;;;;3.16;85.97;100723.31;5029592;28;20445;-76
2023/04/25 04:50:32;;;;;;;;;;;;;;;3.24;84.90;100730.94;5030685;28;19952;-75
2023/04/25 04:53:20;;;;;;;;;;;;;;;3.42;85.44;100727.47;5037374;28;19957;-76
2023/04/25 04:56:08;;;;;;;;;;;;;;;3.55;85.62;100726.50;5042790;28;19937;-77
2023/04/25 04:58:59;;;;;;;;;;;;;;;3.85;84.08;100737.09;5050406;28;20421;-76
2023/04/25 05:01:43;;;;;;;;;;;;;;;3.93;84.14;100728.84;5032685;28;19993;-76
2023/04/25 05:04:27;;;;;;;;;;;;;;;3.99;84.08;100733.22;5015971;28;19944;-76
2023/04/25 05:07:11;;;;;;;;;;;;;;;4.14;80.15;100739.97;5033914;28;19995;-75
2023/04/25 05:09:46;;;;;;;;;;;;;;;4.31;79.66;100736.41;5026657;28;20442;-75
2023/04/25 05:12:41;;;;;;;;;;;;;;;4.35;80.67;100742.91;5003150;28;19966;-76
2023/04/25 05:15:15;;;;;;;;;;;;;;;4.41;81.15;100751.78;5018907;28;19937;-76
2023/04/25 05:17:53;;;;;;;;;;;;;;;4.48;80.69;100752.50;4994352;28;19940;-75
2023/04/25 05:20:43;;;;;;;;;;;;;;;4.45;83.06;100757.44;5026940;28;20420;-76
2023/04/25 05:23:29;;;;;;;;;;;;;;;4.45;77.69;100763.53;5031046;28;19946;-75
2023/04/25 05:26:13;;;;;;;;;;;;;;;4.50;79.03;100765.50;5028223;28;19960;-75
2023/04/25 05:28:55;;;;;;;;;;;;;;;4.47;79.98;100773.91;5037430;28;19958;-76
2023/04/25 05:31:43;;;;;;;;;;;;;;;4.45;80.10;100779.44;5001551;28;19958;-75
2023/04/25 05:34:12;;;;;;;;;;;;;;;4.36;83.62;100789.59;5028153;28;19935;-76
2023/04/25 05:37:10;;;;;;;;;;;;;;;4.35;81.89;100777.38;5021868;28;20387;-76
2023/04/25 05:39:48;;;;;;;;;;;;;;;4.38;83.14;100779.53;5035260;28;19936;-78
2023/04/25 05:42:26;;;;;;;;;;;;;;;4.42;84.34;100774.63;5042216;28;19999;-77
2023/04/25 05:45:26;;;;;;;;;;;;;;;4.47;82.35;100782.69;4997196;28;19963;-76
2023/04/25 05:48:08;;;;;;;;;;;;;;;4.50;79.89;100776.94;5011615;28;20491;-76
2023/04/25 05:50:57;;;;;;;;;;;;;;;4.58;79.97;100781.09;5008465;28;20050;-75
2023/04/25 05:53:37;;;;;;;;;;;;;;;4.71;81.54;100788.03;5013084;28;19950;-75
2023/04/25 05:56:03;;;;;;;;;;;;;;;4.77;82.29;100784.44;5026251;28;19947;-75
2023/04/25 05:58:28;;;;;;;;;;;;;;;4.98;80.99;100788.38;5029545;28;19934;-76
2023/04/25 06:00:55;;;;;;;;;;;;;;;5.02;79.73;100786.88;5033497;28;19992;-77
2023/04/25 06:03:22;;;;;;;;;;;;;;;5.14;79.36;100785.81;5019009;28;19947;-76
2023/04/25 06:05:49;;;;;;;;;;;;;;;5.14;77.93;100787.66;5039235;28;20030;-75
2023/04/25 06:08:15;;;;;;;;;;;;;;;5.22;80.37;100784.69;5028550;28;20405;-77
2023/04/25 06:10:41;;;;;;;;;;;;;;;5.35;81.72;100789.75;5016614;28;20517;-76
2023/04/25 06:13:07;;;;;;;;;;;;;;;5.44;80.33;100787.53;5033968;28;20017;-76
2023/04/25 06:15:34;;;;;;;;;;;;;;;5.51;76.84;100800.69;5025879;28;19936;-76
2023/04/25 06:18:02;;;;;;;;;;;;;;;5.46;78.98;100786.25;5019328;28;20111;-76
2023/04/25 06:20:28;;;;;;;;;;;;;;;5.61;79.27;100799.03;5027432;28;19930;-75
2023/04/25 06:22:57;;;;;;;;;;;;;;;5.75;76.77;100795.03;5029027;28;20416;-76
2023/04/25 06:25:31;;;;;;;;;;;;;;;5.79;76.79;100795.41;5031058;28;19941;-77
2023/04/25 06:27:58;;;;;;;;;;;;;;;5.84;74.69;100810.66;5021165;28;19946;-75
2023/04/25 06:30:25;;;;;;;;;;;;;;;5.88;76.04;100803.78;5032213;28;19956;-75
2023/04/25 06:32:54;;;;;;;;;;;;;;;5.95;76.75;100804.50;5034083;28;19963;-75
2023/04/25 06:35:20;;;;;;;;;;;;;;;5.86;76.08;100805.88;5032768;28;19945;-75
2023/04/25 06:37:46;;;;;;;;;;;;;;;5.74;75.74;100811.22;5030269;28;19945;-76
2023/04/25 06:40:12;;;;;;;;;;;;;;;5.89;76.53;100821.34;5034035;28;20508;-76
2023/04/25 06:42:38;;;;;;;;;;;;;;;5.62;77.18;100816.59;5031606;28;19953;-76
2023/04/25 06:45:23;;;;;;;;;;;;;;;5.46;76.75;100812.81;5045767;28;19984;-75
2023/04/25 06:47:49;;;;;;;;;;;;;;;5.61;76.76;100820.28;5037369;28;19938;-76
2023/04/25 06:50:14;;;;;;;;;;;;;;;5.82;78.69;100815.38;5033968;28;19958;-76
2023/04/25 06:52:41;;;;;;;;;;;;;;;5.78;77.05;100819.56;5049954;28;19961;-76
2023/04/25 06:55:07;;;;;;;;;;;;;;;5.98;76.35;100825.31;5019981;28;20331;-76
2023/04/25 06:57:56;;;;;;;;;;;;;;;6.14;76.03;100819.22;5031877;28;19934;-75
2023/04/25 07:00:57;;;;;;;;;;;;;;;6.25;72.95;100820.22;5026943;28;19932;-76
2023/04/25 07:03:25;;;;;;;;;;;;;;;6.20;76.55;100818.25;5037279;28;19989;-76
2023/04/25 07:05:54;;;;;;;;;;;;;;;6.27;73.56;100826.09;5009381;28;19972;-77
2023/04/25 07:08:21;;;;;;;;;;;;;;;6.47;73.92;100825.66;5031978;28;20360;-76
2023/04/25 07:10:46;;;;;;;;;;;;;;;6.55;72.36;100831.38;5034335;28;20024;-76
2023/04/25 07:13:12;;;;;;;;;;;;;;;6.65;74.19;100829.94;5032141;28;19993;-76
2023/04/25 07:15:37;;;;;;;;;;;;;;;7.00;74.74;100832.38;5026923;28;19931;-78
2023/04/25 07:18:04;;;;;;;;;;;;;;;6.60;73.37;100835.97;5037229;28;19939;-77
2023/04/25 07:20:30;;;;;;;;;;;;;;;6.62;72.75;100836.53;5020917;28;19938;-78
2023/04/25 07:22:56;;;;;;;;;;;;;;;6.42;71.99;100836.19;5012167;28;19951;-75
2023/04/25 07:25:23;;;;;;;;;;;;;;;6.82;73.22;100828.88;5031570;28;20022;-76
2023/04/25 07:27:49;;;;;;;;;;;;;;;7.10;74.16;100832.50;5028965;28;19944;-78
2023/04/25 07:30:18;;;;;;;;;;;;;;;7.01;72.21;100833.97;5029710;28;19957;-78
2023/04/25 07:32:43;;;;;;;;;;;;;;;7.29;71.37;100841.84;5014554;28;19988;-77
2023/04/25 07:35:09;;;;;;;;;;;;;;;7.29;70.80;100844.50;5044992;28;19966;-76
2023/04/25 07:37:35;;;;;;;;;;;;;;;7.08;68.57;100843.41;5019117;28;19981;-76
2023/04/25 07:40:16;;;;;;;;;;;;;;;6.83;72.53;100853.66;5033548;28;19940;-77
2023/04/25 07:42:45;;;;;;;;;;;;;;;6.93;70.96;100837.03;5046080;28;20016;-77
2023/04/25 07:45:12;;;;;;;;;;;;;;;6.84;71.16;100848.09;5031898;28;19930;-78
2023/04/25 07:47:39;;;;;;;;;;;;;;;6.82;71.01;100850.19;5015746;28;19946;-77
2023/04/25 07:50:06;;;;;;;;;;;;;;;6.97;69.59;100859.47;5021022;28;20441;-77
2023/04/25 07:52:32;;;;;;;;;;;;;;;7.10;71.52;100843.94;5031235;28;19957;-76
2023/04/25 07:55:08;;;;;;;;;;;;;;;7.26;69.34;100853.00;5051597;28;19977;-76
2023/04/25 07:57:47;;;;;;;;;;;;;;;7.33;71.03;100848.31;5031294;28;19945;-76
2023/04/25 08:00:14;;;;;;;;;;;;;;;7.31;70.34;100845.06;5025551;28;20320;-77
2023/04/25 08:02:43;;;;;;;;;;;;;;;7.49;68.96;100851.97;5034334;28;20020;-76
2023/04/25 08:05:14;;;;;;;;;;;;;;;7.58;70.19;100853.16;5018921;28;19931;-76
2023/04/25 08:07:44;;;;;;;;;;;;;;;7.95;68.16;100849.88;5009583;28;19966;-77
2023/04/25 08:10:10;;;;;;;;;;;;;;;7.71;67.61;100849.31;5028109;28;19972;-77
2023/04/25 08:12:36;;;;;;;;;;;;;;;7.52;69.35;100856.81;5013629;28;20151;-76
2023/04/25 08:15:03;;;;;;;;;;;;;;;7.71;67.16;100864.50;5025025;28;19939;-76
2023/04/25 08:17:32;;;;;;;;;;;;;;;8.28;64.83;100859.59;5029010;28;19937;-76
2023/04/25 08:19:58;;;;;;;;;;;;;;;8.36;65.73;100867.16;5036573;28;20046;-78
2023/04/25 08:22:30;;;;;;;;;;;;;;;8.62;64.22;100870.09;5027744;28;19953;-77
2023/04/25 08:25:13;;;;;;;;;;;;;;;8.75;64.36;100880.34;5001305;28;19940;-76
2023/04/25 08:27:39;;;;;;;;;;;;;;;8.50;64.54;100872.09;5031525;28;19944;-77
2023/04/25 08:30:05;;;;;;;;;;;;;;;8.30;64.17;100878.00;5036595;28;19939;-76
2023/04/25 08:32:31;;;;;;;;;;;;;;;8.29;65.14;100889.75;5033811;28;19951;-76
2023/04/25 08:35:11;;;;;;;;;;;;;;;8.22;62.94;100884.59;5014198;28;20426;-76
2023/04/25 08:37:36;;;;;;;;;;;;;;;8.55;65.71;100880.16;5024431;28;19934;-76
2023/04/25 08:40:11;;;;;;;;;;;;;;;8.24;63.42;100885.16;5018480;28;19944;-77
2023/04/25 08:42:53;;;;;;;;;;;;;;;8.10;62.92;100878.59;5015482;28;20002;-76
2023/04/25 08:45:20;;;;;;;;;;;;;;;8.55;62.64;100890.84;5013717;28;19945;-76
2023/04/25 08:47:48;;;;;;;;;;;;;;;8.43;63.66;100902.47;5025789;28;19963;-77
2023/04/25 08:50:14;;;;;;;;;;;;;;;8.45;62.67;100908.34;5032694;28;19976;-77
2023/04/25 08:52:43;;;;;;;;;;;;;;;8.82;59.68;100899.63;5014530;28;19991;-77
2023/04/25 08:55:09;;;;;;;;;;;;;;;9.46;63.67;100885.41;5028349;28;19935;-78
2023/04/25 08:57:35;;;;;;;;;;;;;;;9.34;62.45;100915.00;5045151;28;20003;-77
2023/04/25 09:00:03;;;;;;;;;;;;;;;9.24;61.10;100920.28;5024604;28;20070;-79
2023/04/25 09:02:32;;;;;;;;;;;;;;;9.30;62.33;100912.03;5015976;28;19957;-76
2023/04/25 09:04:58;;;;;;;;;;;;;;;8.69;63.23;100932.09;5015126;28;19934;-77
2023/04/25 09:07:23;;;;;;;;;;;;;;;8.23;65.75;100952.09;5012556;28;20385;-75
2023/04/25 09:09:49;;;;;;;;;;;;;;;7.63;68.29;100945.72;5030278;28;20032;-77
2023/04/25 09:12:20;;;;;;;;;;;;;;;7.63;70.15;100948.38;5035850;28;20063;-77
2023/04/25 09:15:02;;;;;;;;;;;;;;;7.47;68.93;100959.88;5036948;28;19978;-75
2023/04/25 09:17:41;;;;;;;;;;;;;;;7.41;68.46;100958.97;5023991;28;19996;-76
2023/04/25 09:20:11;;;;;;;;;;;;;;;7.35;68.46;100967.94;5012742;28;19976;-76
2023/04/25 09:22:37;;;;;;;;;;;;;;;6.99;66.90;100963.88;5024673;28;20415;-76
2023/04/25 09:25:07;;;;;;;;;;;;;;;6.71;67.79;100965.53;5023216;28;19944;-78
2023/04/25 09:27:33;;;;;;;;;;;;;;;6.71;66.96;100978.03;5017986;28;19928;-76
2023/04/25 09:30:08;;;;;;;;;;;;;;;6.95;67.89;100978.72;5024438;28;19957;-76
2023/04/25 09:32:56;;;;;;;;;;;;;;;7.05;67.12;100981.56;5037747;28;20030;-76
2023/04/25 09:35:26;;;;;;;;;;;;;;;7.63;65.65;100981.16;5049075;28;19937;-77
2023/04/25 09:37:52;;;;;;;;;;;;;;;7.77;65.61;100970.16;5010810;28;19926;-78
2023/04/25 09:40:43;;;;;;;;;;;;;;;7.82;66.46;100983.56;5028433;28;20295;-76
2023/04/25 09:43:23;;;;;;;;;;;;;;;7.78;64.15;100977.91;5017255;28;19952;-76
2023/04/25 09:45:51;;;;;;;;;;;;;;;8.53;66.03;100994.38;5037305;28;19934;-76
2023/04/25 09:48:18;;;;;;;;;;;;;;;9.11;60.64;100990.16;5037783;28;19946;-77
2023/04/25 09:51:03;;;;;;;;;;;;;;;8.96;60.72;101005.00;5006756;28;20374;-76
2023/04/25 09:53:29;;;;;;;;;;;;;;;8.60;64.25;101011.00;5040323;28;19951;-77
2023/04/25 09:56:08;;;;;;;;;;;;;;;8.25;64.51;101014.81;5028020;28;19937;-76
2023/04/25 09:58:35;;;;;;;;;;;;;;;8.14;65.67;101010.44;5026826;28;19973;-77
2023/04/25 10:01:02;;;;;;;;;;;;;;;8.14;63.21;101015.75;5045468;28;19968;-76
2023/04/25 10:03:42;;;;;;;;;;;;;;;8.02;62.57;101007.06;5037736;28;20038;-77
2023/04/25 10:06:29;;;;;;;;;;;;;;;8.39;62.59;101001.94;5033495;28;19989;-77
2023/04/25 10:08:55;;;;;;;;;;;;;;;8.56;61.34;101015.25;5011729;28;19937;-76
2023/04/25 10:11:22;;;;;;;;;;;;;;;8.89;60.80;101012.41;5024698;28;19958;-78
2023/04/25 10:13:48;;;;;;;;;;;;;;;9.57;62.10;101018.09;5037593;28;20001;-77
2023/04/25 10:16:14;;;;;;;;;;;;;;;9.21;59.13;101016.97;5016462;28;19931;-75
2023/04/25 10:18:39;;;;;;;;;;;;;;;9.49;59.72;101007.88;5045175;28;19944;-77
2023/04/25 10:21:05;;;;;;;;;;;;;;;9.73;58.82;101016.31;5027842;28;19958;-78
2023/04/25 10:23:31;;;;;;;;;;;;;;;10.09;60.56;101007.47;5023365;28;19953;-77
2023/04/25 10:25:57;;;;;;;;;;;;;;;10.19;58.49;101006.72;5017943;28;20361;-75
2023/04/25 10:28:22;;;;;;;;;;;;;;;10.82;58.29;101017.41;5027018;28;19933;-76
2023/04/25 10:31:07;;;;;;;;;;;;;;;10.63;58.33;101015.25;5008082;28;19962;-76
2023/04/25 10:33:40;;;;;;;;;;;;;;;9.87;57.05;101020.16;5030389;28;19958;-78
2023/04/25 10:36:10;;;;;;;;;;;;;;;9.26;52.75;101019.69;5018834;28;20019;-76
2023/04/25 10:38:37;;;;;;;;;;;;;;;10.09;56.97;101020.84;5020245;28;19935;-77
2023/04/25 10:41:04;;;;;;;;;;;;;;;9.89;54.68;101018.06;5009690;28;19958;-77
2023/04/25 10:43:39;;;;;;;;;;;;;;;10.25;51.74;101007.56;5012577;28;19954;-76
2023/04/25 10:46:14;;;;;;;;;;;;;;;10.74;54.82;101017.94;5010786;28;20023;-75
2023/04/25 10:48:45;;;;;;;;;;;;;;;10.63;54.90;101001.84;5050841;28;19935;-77
2023/04/25 10:51:11;;;;;;;;;;;;;;;10.62;55.84;101010.91;5025692;28;20449;-77
2023/04/25 10:53:37;;;;;;;;;;;;;;;10.25;57.19;101015.59;5037950;28;19960;-76
2023/04/25 10:56:19;;;;;;;;;;;;;;;10.16;56.20;101011.75;5038600;28;19932;-77
2023/04/25 10:58:45;;;;;;;;;;;;;;;10.79;56.31;101013.41;5030563;28;19998;-76
2023/04/25 11:01:12;;;;;;;;;;;;;;;10.76;54.74;101021.16;5029975;28;20026;-76
2023/04/25 11:03:40;;;;;;;;;;;;;;;11.19;54.87;101020.72;5030633;28;19952;-77
2023/04/25 11:06:11;;;;;;;;;;;;;;;11.01;50.63;101029.25;5032327;28;19980;-76
2023/04/25 11:08:47;;;;;;;;;;;;;;;10.85;54.24;101024.94;5038963;28;19934;-77
2023/04/25 11:11:13;;;;;;;;;;;;;;;10.04;56.91;101023.50;5042867;28;19963;-76
2023/04/25 11:13:39;;;;;;;;;;;;;;;10.10;57.51;101030.50;5031963;28;19956;-77
2023/04/25 11:16:06;;;;;;;;;;;;;;;10.55;58.08;101031.78;5028960;28;20005;-77
2023/04/25 11:18:34;;;;;;;;;;;;;;;10.47;55.67;101040.34;5040848;28;19944;-75
2023/04/25 11:20:59;;;;;;;;;;;;;;;11.14;55.71;101034.09;5056320;28;19935;-76
2023/04/25 11:23:26;;;;;;;;;;;;;;;11.05;54.44;101046.44;5029515;28;20046;-76
2023/04/25 11:25:52;;;;;;;;;;;;;;;9.97;55.90;101052.34;5022769;28;19943;-75
2023/04/25 11:28:22;;;;;;;;;;;;;;;10.42;56.32;101024.22;5012580;28;19965;-76
2023/04/25 11:30:50;;;;;;;;;;;;;;;10.75;55.16;101031.06;5024804;28;19949;-77
2023/04/25 11:33:15;;;;;;;;;;;;;;;11.21;53.01;101040.00;5026553;28;20396;-76
2023/04/25 11:35:41;;;;;;;;;;;;;;;11.32;50.59;101038.16;5024263;28;20025;-76
2023/04/25 11:38:06;;;;;;;;;;;;;;;11.59;54.32;101034.41;5032139;28;20021;-77
2023/04/25 11:40:32;;;;;;;;;;;;;;;11.95;51.68;101021.78;5016839;28;20387;-75
2023/04/25 11:43:00;;;;;;;;;;;;;;;11.94;50.06;101037.06;5031756;28;19951;-76
2023/04/25 11:45:26;;;;;;;;;;;;;;;10.92;54.99;101076.41;5044303;28;19950;-76
2023/04/25 11:47:51;;;;;;;;;;;;;;;8.08;63.89;101107.44;5035743;28;20026;-75
2023/04/25 11:50:17;;;;;;;;;;;;;;;6.35;71.53;101107.66;5028450;28;20041;-75
2023/04/25 11:52:43;;;;;;;;;;;;;;;6.45;75.11;101104.44;5014735;28;19956;-76
2023/04/25 11:55:13;;;;;;;;;;;;;;;6.99;74.74;101103.16;5048142;28;20110;-75
2023/04/25 11:57:39;;;;;;;;;;;;;;;7.28;71.35;101097.84;5028290;28;19932;-76
2023/04/25 12:00:06;;;;;;;;;;;;;;;7.58;71.54;101100.22;5035156;28;19951;-76
2023/04/25 12:02:42;;;;;;;;;;;;;;;7.78;71.82;101097.88;5020091;28;20027;-75
2023/04/25 12:05:08;;;;;;;;;;;;;;;8.26;68.68;101091.16;5033619;28;20027;-76
2023/04/25 12:07:34;;;;;;;;;;;;;;;8.67;67.90;101092.56;5053664;28;19940;-75
2023/04/25 12:10:03;;;;;;;;;;;;;;;9.13;68.77;101092.25;5030004;28;19977;-75
2023/04/25 12:12:32;;;;;;;;;;;;;;;9.29;65.74;101099.38;5030644;28;19965;-77
2023/04/25 12:15:08;;;;;;;;;;;;;;;9.90;63.65;101086.56;5043373;28;20286;-75
2023/04/25 12:17:34;;;;;;;;;;;;;;;9.93;58.74;101087.91;5052309;28;19934;-74
2023/04/25 12:19:59;;;;;;;;;;;;;;;10.79;59.83;101076.88;5027659;28;19936;-75
2023/04/25 12:22:25;;;;;;;;;;;;;;;11.58;58.39;101089.91;5033188;28;19959;-76
2023/04/25 12:24:53;;;;;;;;;;;;;;;12.07;56.73;101077.88;5028954;28;20471;-76
2023/04/25 12:27:18;;;;;;;;;;;;;;;12.40;58.76;101081.81;5033528;28;19928;-75
2023/04/25 12:29:54;;;;;;;;;;;;;;;12.49;52.00;101083.66;5013053;28;19939;-75
2023/04/25 12:32:19;;;;;;;;;;;;;;;12.97;49.78;101075.13;5012606;28;20441;-75
2023/04/25 12:34:45;;;;;;;;;;;;;;;12.35;49.90;101079.13;5014759;28;19933;-75
2023/04/25 12:37:11;;;;;;;;;;;;;;;11.69;48.73;101078.13;5030613;28;19935;-76
2023/04/25 12:39:37;;;;;;;;;;;;;;;10.91;49.90;101090.88;5016616;28;20007;-77
2023/04/25 12:42:03;;;;;;;;;;;;;;;10.17;53.46;101083.00;5037323;28;20437;-75
2023/04/25 12:44:28;;;;;;;;;;;;;;;9.90;56.48;101102.59;5048627;28;20036;-75
2023/04/25 12:46:54;;;;;;;;;;;;;;;9.54;54.60;101096.94;5001073;28;19941;-76
2023/04/25 12:49:20;;;;;;;;;;;;;;;9.62;57.01;101106.38;5034842;28;20328;-74
2023/04/25 12:51:46;;;;;;;;;;;;;;;9.99;54.14;101103.72;5031072;28;19963;-75
2023/04/25 12:54:12;;;;;;;;;;;;;;;10.69;52.56;101103.63;5032700;28;19940;-77
2023/04/25 12:56:37;;;;;;;;;;;;;;;12.34;49.94;101099.03;5045010;28;19940;-76
2023/04/25 12:59:04;;;;;;;;;;;;;;;13.11;45.67;101095.75;5030176;28;19974;-77